Nearby METAR Reports

KBED - Bedford,MA, USA
Distance from station: S 11mi, 18km
Updated: Sun, 25-Oct-2020 11:51am EDT
Mostly Cloudy
Mostly Cloudy
 Wind from varies
Wind: varies 6 mph , 9 km/h
Temperature: 48°F , 9°C
Wind Chill: 45°F , 7°C
Dew Point: 34°F , 1°C
Humidity: 58%
Barometer: 30.27 inHg , 1025.1 hPa
Clouds: Mostly Cloudy
Visibility: 10 miles , 16 km
Cloud details: Mostly Cloudy 3900 ft
2020/10/25 15:51 KBED 251551Z VRB05KT 10SM BKN039 09/01 A3027 RMK AO2 SLP264 T00890006
KLWM - Lawrence,MA, USA
Distance from station: ENE 12mi, 19km
Updated: Sun, 25-Oct-2020 11:54am EDT
Few Clouds
Few Clouds
 Wind from E
Wind: E 6 mph , 9 km/h
Temperature: 48°F , 9°C
Wind Chill: 45°F , 7°C
Dew Point: 34°F , 1°C
Humidity: 58%
Barometer: 30.30 inHg , 1026.1 hPa
Clouds: Few Clouds
Visibility: 10 miles , 16 km
Cloud details: Few Clouds 4000 ft
2020/10/25 15:54 KLWM 251554Z 08005KT 10SM FEW040 09/01 A3030 RMK AO2 SLP261 T00890011
 
KASH - Nashua,NH, USA
Distance from station: NW 14mi, 23km
Updated: Sun, 25-Oct-2020 11:56am EDT
Mostly Cloudy
Mostly Cloudy
 Wind from calm
Wind: Calm
Temperature: 45°F , 7°C
Dew Point: 30°F , -1°C
Humidity: 57%
Barometer: 30.29 inHg , 1025.7 hPa
Clouds: Mostly Cloudy
Visibility: 10 miles , 16 km
Cloud details: Mostly Cloudy 3800 ft
2020/10/25 15:56 KASH 251556Z 00000KT 10SM BKN038 07/M01 A3029 RMK AO2 SLP261 T00721006
KFIT - Fitchburg, MA, USA
Distance from station: WSW 22mi, 35km
Updated: Sun, 25-Oct-2020 11:52am EDT
Overcast
Overcast
 Wind from calm
Wind: Calm
Temperature: 46°F , 8°C
Dew Point: 30°F , -1°C
Humidity: 53%
Barometer: 30.28 inHg , 1025.4 hPa
Clouds: Overcast
Visibility: 10 miles , 16 km
Cloud details: Overcast 3700 ft
2020/10/25 15:52 KFIT 251552Z AUTO 00000KT 10SM OVC037 08/M01 A3028 RMK AO2 SLP257 T00781006

Metar display script from Saratoga-Weather.org